< < Back
Terminal Aerodrome Forecast


Current Version              Previous Versions:   1  2  3  4  5  6  7  8  9  

Terminal Aerodrome Forecast

829
FTUS44 KMOB 280000 RRA
TAFPNS
TAF
KPNS 280009Z 2800/2824 02006KT P6SM FEW250
     FM281200 06010KT P6SM BKN015
     FM281800 06009KT P6SM BKN025 BKN250=

Latest METAR

818
SAUS70 KWBC 282000
MTRPNS
METAR KPNS 281953Z 04007KT 360V070 10SM OVC020 16/08 A3034 RMK AO2
SLP277 T01560078


USA.gov is the U.S. government's official web portal to all federal, state and local government web resources and services.